Time;durP1;ratioP1;P1;durP2;ratioP2;P2;SDS_P1;SDS_P2;PMS_P1;PMS_P2;Temp;Humidity;BMP_temperature;BMP_pressure;BME280_temperature;BME280_humidity;BME280_pressure;Samples;Min_cycle;Max_cycle;Signal;HPM_P1;HPM_P2
2022/12/09 00:00:41;;;;;;;4.25;1.30;;;19.00;45.60;;;;;;5021417;28;20112;-63
2022/12/09 00:03:08;;;;;;;5.35;1.40;;;19.00;45.30;;;;;;5019405;28;20125;-65
2022/12/09 00:05:37;;;;;;;86.13;4.20;;;18.90;45.80;;;;;;5025663;28;20090;-64
2022/12/09 00:08:04;;;;;;;24.35;2.83;;;18.80;46.00;;;;;;5024089;28;20100;-62
2022/12/09 00:10:30;;;;;;;32.63;3.45;;;18.70;46.10;;;;;;5021344;28;20502;-63
2022/12/09 00:12:56;;;;;;;14.95;2.30;;;18.60;46.50;;;;;;5025434;28;20207;-64
2022/12/09 00:15:23;;;;;;;4.10;1.40;;;18.60;46.60;;;;;;5018034;28;20090;-63
2022/12/09 00:17:49;;;;;;;16.67;1.45;;;18.50;47.30;;;;;;5023546;28;20074;-62
2022/12/09 00:20:16;;;;;;;21.50;2.25;;;18.40;47.50;;;;;;5021384;28;20128;-63
2022/12/09 00:22:42;;;;;;;12.55;2.00;;;18.40;47.60;;;;;;5027351;28;20117;-62
2022/12/09 00:25:09;;;;;;;17.05;2.53;;;18.30;48.10;;;;;;5020272;28;20123;-63
2022/12/09 00:27:35;;;;;;;14.43;3.20;;;18.20;47.90;;;;;;5020408;28;20073;-63
2022/12/09 00:30:02;;;;;;;12.32;2.33;;;18.10;48.40;;;;;;5018864;28;20078;-62
2022/12/09 00:32:29;;;;;;;9.30;2.20;;;18.10;49.10;;;;;;5021748;28;20173;-65
2022/12/09 00:34:55;;;;;;;13.15;2.33;;;18.00;48.90;;;;;;5018655;28;20447;-64
2022/12/09 00:37:21;;;;;;;17.40;2.15;;;18.00;49.20;;;;;;5018585;28;20101;-64
2022/12/09 00:39:48;;;;;;;7.82;2.10;;;17.80;49.30;;;;;;5020656;28;20115;-63
2022/12/09 00:42:14;;;;;;;17.23;3.38;;;17.80;49.50;;;;;;5022976;28;20578;-65
2022/12/09 00:44:40;;;;;;;;;;;17.70;50.00;;;;;;5017347;28;20540;-64
2022/12/09 00:47:07;;;;;;;14.95;2.97;;;17.60;50.60;;;;;;5020539;28;20044;-65
2022/12/09 00:49:33;;;;;;;;;;;17.50;51.10;;;;;;5024964;28;20117;-65
2022/12/09 00:51:59;;;;;;;15.88;3.15;;;17.40;51.40;;;;;;5019813;28;19962;-64
2022/12/09 00:54:25;;;;;;;;;;;17.20;51.60;;;;;;5019637;28;20096;-65
2022/12/09 00:56:51;;;;;;;17.17;3.38;;;17.10;52.10;;;;;;5020038;28;19974;-67
2022/12/09 00:59:18;;;;;;;16.55;3.85;;;17.00;52.50;;;;;;5021436;28;20070;-65
2022/12/09 01:01:44;;;;;;;;;;;16.90;53.00;;;;;;5018668;28;20070;-65
2022/12/09 01:04:10;;;;;;;16.70;3.80;;;16.80;53.40;;;;;;5017200;28;19964;-64
2022/12/09 01:06:36;;;;;;;16.23;3.92;;;16.70;53.90;;;;;;5021498;28;20108;-64
2022/12/09 01:09:03;;;;;;;19.67;4.50;;;16.60;54.40;;;;;;5017819;28;20070;-64
2022/12/09 01:11:30;;;;;;;24.15;4.43;;;16.50;54.90;;;;;;5025094;28;20496;-62
2022/12/09 01:14:01;;;;;;;41.25;5.85;;;16.40;55.10;;;;;;5024381;28;20165;-61
2022/12/09 01:16:31;;;;;;;22.75;4.40;;;16.30;55.40;;;;;;5018637;28;20164;-64
2022/12/09 01:18:59;;;;;;;26.88;4.97;;;16.20;55.70;;;;;;5017143;28;20066;-65
2022/12/09 01:21:28;;;;;;;30.77;4.20;;;16.10;55.90;;;;;;5022407;28;20599;-64
2022/12/09 01:23:54;;;;;;;23.95;4.25;;;16.00;56.30;;;;;;5020362;28;20074;-63
2022/12/09 01:26:21;;;;;;;29.63;4.88;;;15.90;56.70;;;;;;5017314;28;20418;-63
2022/12/09 01:28:51;;;;;;;27.40;4.93;;;15.80;57.00;;;;;;5016239;28;20536;-63
2022/12/09 01:31:21;;;;;;;24.23;4.38;;;15.70;57.50;;;;;;5019943;28;20093;-62
2022/12/09 01:33:48;;;;;;;31.95;5.03;;;15.60;57.90;;;;;;5018177;28;20070;-63
2022/12/09 01:36:17;;;;;;;34.50;4.60;;;15.50;58.00;;;;;;5020533;28;20195;-64
2022/12/09 01:38:45;;;;;;;24.85;4.47;;;15.50;57.90;;;;;;5015413;28;20486;-64
2022/12/09 01:41:11;;;;;;;28.05;4.50;;;15.40;58.10;;;;;;5021706;28;20089;-64
2022/12/09 01:43:39;;;;;;;32.30;4.75;;;15.40;58.40;;;;;;5019784;28;20090;-64
2022/12/09 01:46:05;;;;;;;30.67;5.18;;;15.30;58.80;;;;;;5019374;28;20070;-65
2022/12/09 01:48:42;;;;;;;27.63;4.32;;;15.20;58.90;;;;;;5022102;28;20198;-64
2022/12/09 01:51:18;;;;;;;20.52;4.80;;;15.20;58.80;;;;;;5022782;28;20171;-65
2022/12/09 01:53:48;;;;;;;29.20;5.38;;;15.20;58.90;;;;;;5020055;28;20131;-65
2022/12/09 01:56:25;;;;;;;30.58;8.38;;;15.10;59.10;;;;;;5019762;28;20141;-64
2022/12/09 01:58:53;;;;;;;38.35;8.90;;;15.00;59.40;;;;;;5019373;28;20113;-66
2022/12/09 02:01:20;;;;;;;43.05;9.15;;;15.00;59.70;;;;;;5015455;28;20626;-63
2022/12/09 02:03:47;;;;;;;38.03;9.90;;;14.90;59.80;;;;;;5022384;28;20081;-63
2022/12/09 02:06:14;;;;;;;33.05;8.82;;;14.90;60.40;;;;;;5020681;28;20086;-62
2022/12/09 02:08:40;;;;;;;41.38;10.68;;;14.90;60.70;;;;;;5023159;28;20070;-65
2022/12/09 02:11:13;;;;;;;34.03;10.93;;;14.80;59.50;;;;;;5020220;28;20081;-66
2022/12/09 02:13:50;;;;;;;42.55;14.50;;;14.70;59.70;;;;;;5020490;28;20176;-65
2022/12/09 02:16:21;;;;;;;45.97;15.48;;;14.70;60.30;;;;;;5019271;28;20420;-62
2022/12/09 02:19:15;;;;;;;45.95;17.35;;;14.60;60.80;;;;;;5018267;28;20086;-65
2022/12/09 02:21:52;;;;;;;64.10;20.65;;;14.60;61.20;;;;;;5019566;28;20427;-63
2022/12/09 02:24:28;;;;;;;71.82;24.73;;;14.60;61.70;;;;;;5016812;28;20074;-63
2022/12/09 02:27:20;;;;;;;72.25;24.42;;;14.60;62.70;;;;;;5021766;28;20120;-64
2022/12/09 02:30:04;;;;;;;68.70;23.48;;;14.50;62.60;;;;;;5020856;28;20086;-66
2022/12/09 02:32:58;;;;;;;58.97;20.13;;;14.50;62.50;;;;;;5022431;28;20070;-64
2022/12/09 02:35:33;;;;;;;62.85;17.35;;;14.40;62.90;;;;;;5023958;28;20097;-63
2022/12/09 02:38:11;;;;;;;60.85;16.27;;;14.30;62.80;;;;;;5016918;28;20542;-66
2022/12/09 02:40:50;;;;;;;58.35;17.20;;;14.30;62.70;;;;;;5018895;28;20575;-67
2022/12/09 02:43:21;;;;;;;45.10;16.63;;;14.30;63.10;;;;;;5018341;28;20101;-66
2022/12/09 02:45:49;;;;;;;54.42;18.58;;;14.20;62.80;;;;;;5016998;28;20070;-66
2022/12/09 02:48:22;;;;;;;50.28;18.20;;;14.20;63.00;;;;;;5020506;28;20584;-64
2022/12/09 02:50:51;;;;;;;53.40;18.60;;;14.20;63.00;;;;;;5017049;28;20161;-64
2022/12/09 02:53:18;;;;;;;49.50;16.90;;;14.10;63.00;;;;;;5026020;28;20085;-64
2022/12/09 02:55:47;;;;;;;52.17;18.05;;;14.10;63.60;;;;;;5028435;28;20172;-64
2022/12/09 02:58:14;;;;;;;53.25;18.13;;;14.10;64.00;;;;;;5021233;28;20092;-64
2022/12/09 03:00:41;;;;;;;53.80;16.73;;;14.00;64.20;;;;;;5024787;28;20482;-68
2022/12/09 03:03:16;;;;;;;41.83;15.52;;;14.00;64.30;;;;;;5021876;28;20466;-62
2022/12/09 03:05:58;;;;;;;50.30;15.50;;;14.00;65.20;;;;;;5025965;28;20150;-62
2022/12/09 03:08:46;;;;;;;51.55;17.13;;;13.90;64.80;;;;;;5025691;28;20194;-62
2022/12/09 03:11:18;;;;;;;50.00;17.77;;;13.80;65.20;;;;;;5022249;28;20092;-62
2022/12/09 03:14:01;;;;;;;68.75;25.20;;;13.80;65.60;;;;;;5023989;28;20195;-62
2022/12/09 03:16:45;;;;;;;85.05;31.40;;;13.80;65.60;;;;;;5026141;28;20094;-63
2022/12/09 03:19:34;;;;;;;89.35;34.42;;;13.80;65.60;;;;;;5025387;28;20066;-63
2022/12/09 03:22:05;;;;;;;94.47;32.72;;;13.80;66.00;;;;;;5029633;28;20074;-61
2022/12/09 03:24:40;;;;;;;89.65;30.85;;;13.80;65.90;;;;;;5026083;28;20095;-62
2022/12/09 03:27:11;;;;;;;80.15;24.23;;;13.70;66.00;;;;;;5025051;28;20579;-62
2022/12/09 03:29:41;;;;;;;82.32;22.73;;;13.70;66.60;;;;;;5024710;28;20070;-63
2022/12/09 03:32:11;;;;;;;61.33;21.42;;;13.70;67.40;;;;;;5023002;28;20077;-63
2022/12/09 03:34:41;;;;;;;64.65;19.80;;;13.70;67.40;;;;;;5021020;28;20078;-63
2022/12/09 03:37:09;;;;;;;66.80;17.25;;;13.60;67.90;;;;;;5020698;28;20093;-63
2022/12/09 03:39:39;;;;;;;64.60;18.70;;;13.60;67.90;;;;;;5024216;28;20066;-63
2022/12/09 03:42:15;;;;;;;60.55;21.90;;;13.50;67.90;;;;;;5023762;28;20070;-62
2022/12/09 03:44:48;;;;;;;63.08;18.92;;;13.50;67.30;;;;;;5025560;28;20101;-63
2022/12/09 03:47:14;;;;;;;69.32;23.33;;;13.50;67.60;;;;;;5025296;28;20073;-63
2022/12/09 03:49:40;;;;;;;;;;;13.50;67.50;;;;;;5025188;28;20117;-63
2022/12/09 03:52:16;;;;;;;58.35;17.20;;;13.50;67.40;;;;;;5031375;28;20052;-63
2022/12/09 03:54:45;;;;;;;56.03;16.50;;;13.50;67.40;;;;;;5020221;28;20074;-62
2022/12/09 03:57:15;;;;;;;60.30;15.93;;;13.50;67.80;;;;;;5021596;28;20070;-62
2022/12/09 03:59:45;;;;;;;74.32;18.17;;;13.40;68.50;;;;;;5023636;28;20547;-64
2022/12/09 04:02:12;;;;;;;82.28;23.13;;;13.40;69.00;;;;;;5018670;28;20070;-65
2022/12/09 04:04:40;;;;;;;60.55;16.70;;;13.40;69.00;;;;;;5023736;28;20120;-65
2022/12/09 04:07:08;;;;;;;67.75;17.92;;;13.30;69.10;;;;;;5027334;28;20202;-64
2022/12/09 04:09:34;;;;;;;76.22;17.40;;;13.40;69.90;;;;;;5023522;28;20124;-65
2022/12/09 04:12:00;;;;;;;;;;;13.40;68.90;;;;;;5022054;28;20079;-63
2022/12/09 04:14:27;;;;;;;84.47;20.08;;;13.30;67.90;;;;;;5024930;28;19909;-63
2022/12/09 04:16:53;;;;;;;110.93;22.27;;;13.30;68.60;;;;;;5021161;28;20121;-63
2022/12/09 04:19:19;;;;;;;;;;;13.30;68.90;;;;;;5019419;28;20536;-65
2022/12/09 04:21:45;;;;;;;115.32;22.23;;;13.30;69.40;;;;;;5026478;28;19958;-64
2022/12/09 04:24:12;;;;;;;;;;;13.30;69.10;;;;;;5022459;28;20205;-65
2022/12/09 04:26:38;;;;;;;117.80;24.80;;;13.30;69.40;;;;;;5024665;28;20430;-66
2022/12/09 04:29:04;;;;;;;;;;;13.30;69.70;;;;;;5019246;28;20190;-65
2022/12/09 04:31:31;;;;;;;98.28;23.25;;;13.20;70.30;;;;;;5016846;28;19968;-62
2022/12/09 04:33:59;;;;;;;121.97;25.13;;;13.30;70.10;;;;;;5018600;28;20074;-64
2022/12/09 04:36:25;;;;;;;106.40;22.55;;;13.20;69.70;;;;;;5016139;28;20096;-65
2022/12/09 04:38:51;;;;;;;;;;;13.20;70.70;;;;;;5021524;28;20105;-65
2022/12/09 04:41:18;;;;;;;119.65;25.85;;;13.10;71.30;;;;;;5018275;28;20063;-64
2022/12/09 04:43:44;;;;;;;126.28;27.00;;;13.10;71.20;;;;;;5019599;28;20136;-65
2022/12/09 04:46:13;;;;;;;205.45;32.97;;;13.00;71.40;;;;;;5019219;28;20152;-64
2022/12/09 04:48:40;;;;;;;142.88;28.85;;;13.00;71.30;;;;;;5021429;28;20122;-63
2022/12/09 04:51:11;;;;;;;145.65;30.90;;;13.10;71.20;;;;;;5021969;28;20128;-63
2022/12/09 04:53:38;;;;;;;178.68;32.22;;;13.10;71.00;;;;;;5019201;28;20070;-66
2022/12/09 04:56:13;;;;;;;123.15;32.95;;;13.10;71.40;;;;;;5012118;28;20090;-64
2022/12/09 04:58:40;;;;;;;109.68;31.92;;;13.10;71.80;;;;;;5029283;28;20203;-65
2022/12/09 05:01:08;;;;;;;106.38;32.80;;;13.00;71.00;;;;;;5022868;28;20066;-66
2022/12/09 05:03:35;;;;;;;107.72;33.85;;;13.00;71.50;;;;;;5029027;28;20159;-63
2022/12/09 05:06:07;;;;;;;116.40;35.35;;;13.00;71.80;;;;;;5028879;28;20090;-63
2022/12/09 05:08:33;;;;;;;140.18;37.70;;;13.20;75.80;;;;;;5020110;28;20119;-62
2022/12/09 05:11:00;;;;;;;114.63;35.78;;;12.90;71.90;;;;;;5020960;28;20185;-64
2022/12/09 05:13:27;;;;;;;123.57;40.90;;;12.90;72.40;;;;;;5029289;28;20513;-63
2022/12/09 05:15:53;;;;;;;;;;;12.80;72.10;;;;;;5024125;28;20084;-65
2022/12/09 05:18:20;;;;;;;111.87;37.57;;;12.80;72.10;;;;;;5021554;28;20349;-66
2022/12/09 05:20:46;;;;;;;95.40;34.92;;;12.70;72.20;;;;;;5025904;28;20394;-63
2022/12/09 05:23:12;;;;;;;;;;;12.70;72.50;;;;;;5011390;28;20077;-66
2022/12/09 05:25:39;;;;;;;120.30;36.70;;;12.70;72.20;;;;;;5021829;28;20482;-67
2022/12/09 05:28:05;;;;;;;;;;;12.70;72.50;;;;;;5025808;28;20527;-66
2022/12/09 05:30:31;;;;;;;112.07;37.78;;;12.70;72.30;;;;;;5019735;28;19958;-67
2022/12/09 05:32:57;;;;;;;;;;;12.70;72.50;;;;;;5025215;28;20088;-62
2022/12/09 05:35:24;;;;;;;119.82;38.95;;;12.60;72.60;;;;;;5024912;28;19977;-67
2022/12/09 05:37:50;;;;;;;;;;;12.60;72.90;;;;;;5023743;28;20117;-65
2022/12/09 05:40:16;;;;;;;108.65;37.90;;;12.50;73.10;;;;;;5021180;28;19961;-62
2022/12/09 05:42:42;;;;;;;;;;;12.50;73.20;;;;;;5019954;28;20435;-62
2022/12/09 05:45:09;;;;;;;105.35;37.75;;;12.40;78.50;;;;;;5010050;28;19964;-64
2022/12/09 05:47:36;;;;;;;114.63;36.78;;;12.40;74.30;;;;;;5028693;28;20539;-67
2022/12/09 05:50:04;;;;;;;109.10;36.42;;;12.40;74.20;;;;;;5028932;28;20100;-64
2022/12/09 05:52:33;;;;;;;121.78;37.63;;;12.40;85.80;;;;;;5028956;28;20112;-64
2022/12/09 05:54:59;;;;;;;108.35;35.50;;;12.30;75.90;;;;;;5010608;28;20536;-64
2022/12/09 05:57:25;;;;;;;;;;;12.30;75.40;;;;;;5029480;28;20469;-63
2022/12/09 05:59:51;;;;;;;110.45;34.65;;;12.30;75.10;;;;;;5029747;28;19957;-66
2022/12/09 06:02:17;;;;;;;;;;;12.20;75.10;;;;;;5026055;28;20177;-67
2022/12/09 06:04:44;;;;;;;92.90;32.95;;;12.20;74.90;;;;;;5044695;28;20072;-63
2022/12/09 06:07:10;;;;;;;;;;;12.20;75.50;;;;;;5010298;28;20071;-66
2022/12/09 06:09:36;;;;;;;99.72;32.13;;;12.10;76.10;;;;;;5013554;28;20028;-66
2022/12/09 06:12:03;;;;;;;92.43;28.25;;;12.00;76.90;;;;;;5027624;28;20073;-64
2022/12/09 06:14:29;;;;;;;93.90;25.70;;;12.00;76.20;;;;;;5028976;28;20477;-63
2022/12/09 06:16:55;;;;;;;;;;;12.10;75.50;;;;;;5029725;28;20144;-65
2022/12/09 06:19:22;;;;;;;92.32;25.88;;;12.10;75.90;;;;;;5029320;28;19984;-60
2022/12/09 06:21:48;;;;;;;;;;;12.00;76.20;;;;;;5012139;28;20086;-63
2022/12/09 06:24:14;;;;;;;77.93;22.55;;;12.00;75.80;;;;;;5028781;28;19957;-66
2022/12/09 06:26:40;;;;;;;;;;;12.00;75.80;;;;;;5024389;28;20081;-62
2022/12/09 06:29:06;;;;;;;80.30;24.35;;;11.90;76.00;;;;;;5032532;28;19977;-67
2022/12/09 06:31:32;;;;;;;;;;;11.90;75.80;;;;;;5033532;28;20077;-65
2022/12/09 06:33:59;;;;;;;69.90;23.52;;;11.90;75.90;;;;;;5032843;28;19961;-66
2022/12/09 06:36:26;;;;;;;;;;;11.80;75.90;;;;;;5033477;28;20143;-63
2022/12/09 06:38:52;;;;;;;85.80;23.02;;;11.90;75.90;;;;;;5032948;28;19957;-61
2022/12/09 06:41:18;;;;;;;;;;;11.90;75.30;;;;;;5014259;28;20074;-66
2022/12/09 06:43:45;;;;;;;80.65;29.90;;;11.90;75.90;;;;;;5013269;28;19973;-60
2022/12/09 06:46:15;;;;;;;;;;;11.90;75.50;;;;;;5014699;28;20075;-62
2022/12/09 06:48:41;;;;;;;96.95;33.88;;;11.90;75.50;;;;;;5031400;28;20023;-64
2022/12/09 06:51:08;;;;;;;84.25;34.38;;;11.90;75.50;;;;;;5032401;28;20148;-67
2022/12/09 06:53:34;;;;;;;;;;;11.80;75.80;;;;;;5021084;28;20086;-64
2022/12/09 06:56:05;;;;;;;91.10;30.23;;;11.80;75.80;;;;;;5028061;28;19977;-63
2022/12/09 06:58:32;;;;;;;86.53;29.67;;;11.80;76.10;;;;;;5021262;28;20428;-65
2022/12/09 07:01:05;;;;;;;;;;;11.80;76.10;;;;;;5029828;28;20642;-65
2022/12/09 07:03:31;;;;;;;79.43;29.00;;;11.70;76.80;;;;;;5018372;28;20047;-66
2022/12/09 07:05:57;;;;;;;;;;;11.60;76.80;;;;;;5017473;28;20090;-62
2022/12/09 07:08:24;;;;;;;78.55;27.23;;;11.60;76.80;;;;;;5032225;28;19964;-66
2022/12/09 07:10:50;;;;;;;;;;;11.50;76.70;;;;;;5023327;28;20075;-61
2022/12/09 07:13:16;;;;;;;72.82;26.33;;;11.90;77.40;;;;;;5015363;28;20023;-64
2022/12/09 07:15:42;;;;;;;;;;;12.00;75.60;;;;;;5023045;28;20094;-63
2022/12/09 07:18:08;;;;;;;72.72;25.85;;;12.10;76.30;;;;;;5022665;28;19957;-64
2022/12/09 07:20:34;;;;;;;;;;;12.20;76.00;;;;;;5021372;28;20074;-65
2022/12/09 07:23:01;;;;;;;69.35;24.83;;;12.50;74.80;;;;;;5021609;28;19961;-65
2022/12/09 07:25:27;;;;;;;;;;;12.50;73.90;;;;;;5021991;28;20073;-64
2022/12/09 07:27:53;;;;;;;68.30;24.45;;;12.40;73.90;;;;;;5026681;28;19980;-64
2022/12/09 07:30:22;;;;;;;;;;;12.30;74.10;;;;;;5018870;28;20069;-63
2022/12/09 07:32:48;;;;;;;77.65;24.17;;;12.30;74.20;;;;;;5022860;28;19961;-64
2022/12/09 07:35:14;;;;;;;;;;;12.20;73.70;;;;;;5020436;28;20204;-65
2022/12/09 07:37:41;;;;;;;77.88;22.92;;;12.20;73.70;;;;;;5024580;28;19957;-64
2022/12/09 07:40:07;;;;;;;;;;;12.20;74.00;;;;;;5022022;28;20098;-64
2022/12/09 07:42:34;;;;;;;70.10;22.35;;;12.20;74.10;;;;;;5030871;28;19958;-65
2022/12/09 07:45:00;;;;;;;72.85;21.10;;;12.10;73.90;;;;;;5031594;28;20069;-64
2022/12/09 07:47:26;;;;;;;;;;;12.10;73.40;;;;;;5024829;28;20070;-63
2022/12/09 07:49:53;;;;;;;64.65;21.88;;;12.00;73.10;;;;;;5031197;28;19957;-64
2022/12/09 07:52:19;;;;;;;;;;;12.00;73.30;;;;;;5024703;28;20093;-66
2022/12/09 07:54:45;;;;;;;52.80;21.05;;;12.10;73.80;;;;;;5024325;28;19957;-62
2022/12/09 07:57:11;;;;;;;;;;;12.10;74.00;;;;;;5031120;28;20098;-65
2022/12/09 07:59:38;;;;;;;69.78;22.15;;;12.00;75.00;;;;;;5029640;28;20023;-66
2022/12/09 08:02:04;;;;;;;;;;;12.00;74.70;;;;;;5031731;28;20074;-64
2022/12/09 08:04:30;;;;;;;64.97;22.55;;;12.00;73.90;;;;;;5028746;28;20056;-65
2022/12/09 08:06:57;;;;;;;53.35;19.05;;;11.80;74.00;;;;;;5023003;28;20074;-65
2022/12/09 08:09:24;;;;;;;53.05;20.10;;;11.80;74.50;;;;;;5021490;28;20161;-63
2022/12/09 08:11:50;;;;;;;;;;;11.90;74.40;;;;;;5031429;28;20084;-65
2022/12/09 08:14:16;;;;;;;52.88;18.73;;;11.90;74.80;;;;;;5031016;28;19974;-63
2022/12/09 08:16:42;;;;;;;;;;;11.90;74.40;;;;;;5031372;28;20606;-68
2022/12/09 08:19:09;;;;;;;63.80;19.52;;;11.80;74.30;;;;;;5031284;28;19980;-64
2022/12/09 08:21:36;;;;;;;57.13;18.20;;;11.90;73.80;;;;;;5026196;28;20551;-64
2022/12/09 08:24:06;;;;;;;49.05;17.75;;;12.00;73.00;;;;;;5028387;28;20127;-63
2022/12/09 08:26:33;;;;;;;48.50;16.77;;;11.90;74.40;;;;;;5025757;28;20163;-63
2022/12/09 08:29:00;;;;;;;54.90;16.83;;;11.90;74.00;;;;;;5017529;28;20188;-63
2022/12/09 08:31:27;;;;;;;42.20;16.02;;;11.80;74.00;;;;;;5030247;28;20073;-63
2022/12/09 08:33:54;;;;;;;58.13;15.50;;;11.80;73.50;;;;;;5026718;28;20082;-64
2022/12/09 08:36:23;;;;;;;43.53;13.45;;;11.80;74.80;;;;;;5029024;28;20562;-66
2022/12/09 08:38:50;;;;;;;35.55;12.73;;;11.80;73.20;;;;;;5029621;28;21296;-65
2022/12/09 08:41:19;;;;;;;46.38;13.80;;;11.70;73.10;;;;;;5021986;28;20086;-64
2022/12/09 08:43:47;;;;;;;32.42;12.02;;;11.70;73.60;;;;;;5025352;28;20446;-63
2022/12/09 08:46:14;;;;;;;50.28;12.88;;;11.60;73.20;;;;;;5020593;28;20094;-64
2022/12/09 08:48:41;;;;;;;34.28;10.95;;;11.60;72.50;;;;;;5020815;28;20201;-64
2022/12/09 08:51:09;;;;;;;35.72;10.95;;;11.60;73.80;;;;;;5025854;28;20156;-66
2022/12/09 08:53:36;;;;;;;44.40;12.80;;;11.50;73.50;;;;;;5027103;28;20104;-63
2022/12/09 08:56:12;;;;;;;;;;;11.50;73.30;;;;;;5028921;28;20097;-64
2022/12/09 08:58:39;;;;;;;36.60;10.82;;;11.50;75.50;;;;;;5017416;28;20008;-63
2022/12/09 09:01:06;;;;;;;38.00;11.38;;;11.60;73.40;;;;;;5022343;28;20125;-63
2022/12/09 09:03:33;;;;;;;31.20;9.65;;;11.60;72.00;;;;;;5020350;28;20121;-63
2022/12/09 09:06:06;;;;;;;41.58;19.50;;;11.60;71.20;;;;;;5022932;28;20176;-63
2022/12/09 09:08:33;;;;;;;37.47;10.05;;;11.50;71.60;;;;;;5025024;28;20156;-63
2022/12/09 09:10:59;;;;;;;30.98;9.93;;;11.50;71.60;;;;;;5018309;28;20098;-63
2022/12/09 09:13:25;;;;;;;;;;;11.50;72.20;;;;;;5021447;28;20291;-63
2022/12/09 09:15:54;;;;;;;25.95;9.57;;;11.40;72.60;;;;;;5021409;28;19973;-65
2022/12/09 09:18:20;;;;;;;30.33;8.77;;;11.40;72.50;;;;;;5016596;28;20086;-64
2022/12/09 09:20:47;;;;;;;;;;;11.30;72.80;;;;;;5018946;28;20144;-65
2022/12/09 09:23:14;;;;;;;31.73;10.15;;;11.20;73.20;;;;;;5030329;28;19961;-66
2022/12/09 09:25:42;;;;;;;27.38;8.13;;;11.20;73.60;;;;;;5014908;28;20082;-62
2022/12/09 09:28:09;;;;;;;18.60;7.25;;;11.10;73.60;;;;;;5020737;28;20125;-63
2022/12/09 09:30:36;;;;;;;24.15;6.93;;;11.10;73.20;;;;;;5016816;28;20093;-65
2022/12/09 09:33:03;;;;;;;24.45;7.00;;;11.10;72.80;;;;;;5028342;28;20141;-64
2022/12/09 09:35:29;;;;;;;21.67;6.40;;;11.10;73.30;;;;;;5012107;28;20087;-62
2022/12/09 09:37:58;;;;;;;;;;;11.10;73.10;;;;;;5029911;28;20073;-67
2022/12/09 09:40:26;;;;;;;21.58;6.88;;;11.00;74.60;;;;;;5028152;28;19958;-64
2022/12/09 09:42:54;;;;;;;20.50;6.53;;;11.00;73.70;;;;;;5010081;28;20085;-64
2022/12/09 09:45:22;;;;;;;20.20;5.72;;;10.90;72.50;;;;;;5016839;28;20614;-65
2022/12/09 09:48:01;;;;;;;19.25;5.05;;;10.70;72.40;;;;;;5028193;28;20188;-64
2022/12/09 09:50:31;;;;;;;15.75;3.80;;;10.80;71.80;;;;;;5029559;28;20180;-64
2022/12/09 09:53:00;;;;;;;19.67;4.45;;;10.80;71.50;;;;;;5029738;28;20575;-65
2022/12/09 09:55:53;;;;;;;12.35;4.35;;;10.70;71.20;;;;;;5019285;28;20086;-64
2022/12/09 09:58:47;;;;;;;22.40;7.45;;;10.80;71.20;;;;;;4997538;28;20099;-64
2022/12/09 10:01:17;;;;;;;25.38;10.00;;;10.80;70.40;;;;;;5009351;28;20081;-64
2022/12/09 10:03:49;;;;;;;23.33;9.25;;;10.80;70.00;;;;;;5016407;28;20090;-64
2022/12/09 10:06:50;;;;;;;22.70;10.07;;;10.80;69.80;;;;;;5021616;28;20611;-66
2022/12/09 10:09:42;;;;;;;22.00;9.00;;;10.80;69.60;;;;;;5012338;28;20532;-63
2022/12/09 10:12:34;;;;;;;22.58;8.20;;;10.80;69.60;;;;;;4998353;28;20555;-64
2022/12/09 10:15:14;;;;;;;18.20;7.05;;;10.80;69.50;;;;;;5017471;28;20562;-63
2022/12/09 10:18:17;;;;;;;20.65;6.63;;;10.80;69.60;;;;;;5023931;28;20527;-66
2022/12/09 10:20:44;;;;;;;20.60;7.15;;;10.80;70.00;;;;;;5007928;28;20125;-64
2022/12/09 10:23:14;;;;;;;16.63;6.72;;;10.70;70.00;;;;;;5020891;28;20085;-64
2022/12/09 10:25:56;;;;;;;17.88;5.88;;;10.60;69.90;;;;;;5016095;28;20101;-66
2022/12/09 10:28:37;;;;;;;15.32;6.30;;;10.60;70.00;;;;;;5020418;28;20078;-63
2022/12/09 10:31:03;;;;;;;17.00;5.47;;;10.70;69.90;;;;;;5019288;28;20109;-65
2022/12/09 10:33:34;;;;;;;14.35;5.53;;;10.60;69.90;;;;;;5015715;28;20086;-65
2022/12/09 10:36:00;;;;;;;15.88;5.65;;;10.50;69.70;;;;;;5021068;28;20098;-63
2022/12/09 10:38:29;;;;;;;16.40;5.18;;;10.50;70.60;;;;;;5016971;28;20074;-65
2022/12/09 10:44:22;;;;;;;22.58;5.57;;;10.50;70.70;;;;;;5018587;28;20164;-64
2022/12/09 10:46:59;;;;;;;19.42;5.43;;;10.50;71.50;;;;;;5019291;28;20077;-64
2022/12/09 10:49:27;;;;;;;15.70;4.72;;;10.40;70.90;;;;;;5018003;28;20117;-62
2022/12/09 10:51:54;;;;;;;20.17;5.30;;;10.40;70.80;;;;;;5020584;28;20101;-65
2022/12/09 10:54:23;;;;;;;23.40;5.88;;;10.40;71.20;;;;;;5018160;28;20082;-65
2022/12/09 10:57:22;;;;;;;14.43;5.65;;;10.50;71.20;;;;;;5017973;28;20152;-63
2022/12/09 11:00:04;;;;;;;24.63;5.70;;;10.50;71.30;;;;;;5022900;28;20431;-63
2022/12/09 11:02:32;;;;;;;19.98;5.80;;;10.40;71.50;;;;;;5017544;28;20551;-65
2022/12/09 11:05:27;;;;;;;18.52;6.07;;;10.40;71.40;;;;;;5019252;28;21747;-63
2022/12/09 11:07:56;;;;;;;23.73;7.32;;;10.30;72.20;;;;;;5019016;28;20077;-63
2022/12/09 11:10:25;;;;;;;30.63;9.88;;;10.10;72.30;;;;;;5016514;28;20074;-65
2022/12/09 11:13:04;;;;;;;26.33;9.70;;;10.10;71.70;;;;;;5014793;28;20098;-62
2022/12/09 11:15:39;;;;;;;23.98;10.18;;;10.00;72.20;;;;;;5024675;28;20090;-62
2022/12/09 11:18:35;;;;;;;28.85;10.57;;;9.90;73.80;;;;;;5020255;28;20565;-63
2022/12/09 11:21:07;;;;;;;20.13;8.82;;;9.80;73.20;;;;;;5028755;28;20402;-63
2022/12/09 11:23:34;;;;;;;23.90;8.57;;;9.90;73.00;;;;;;5025512;28;20082;-65
2022/12/09 11:26:03;;;;;;;20.67;8.25;;;9.90;72.60;;;;;;5020254;28;20102;-64
2022/12/09 11:28:32;;;;;;;22.58;7.22;;;9.80;72.70;;;;;;5019949;28;20098;-63
2022/12/09 11:31:19;;;;;;;21.23;7.88;;;9.80;72.60;;;;;;5024887;28;20078;-64
2022/12/09 11:33:56;;;;;;;;;;;9.80;72.70;;;;;;5018219;28;20101;-62
2022/12/09 11:36:34;;;;;;;17.80;6.97;;;9.80;73.00;;;;;;5025632;28;19980;-64
2022/12/09 11:39:17;;;;;;;20.13;6.28;;;9.90;72.90;;;;;;5023121;28;20539;-63
2022/12/09 11:42:14;;;;;;;16.35;7.30;;;9.90;72.70;;;;;;5022712;28;20074;-64
2022/12/09 11:44:57;;;;;;;19.55;6.18;;;9.80;73.60;;;;;;5023458;28;20165;-63
2022/12/09 11:47:38;;;;;;;25.65;7.30;;;9.70;72.80;;;;;;5018780;28;20139;-62
2022/12/09 11:50:20;;;;;;;18.92;7.03;;;9.60;73.40;;;;;;5015591;28;20082;-61
2022/12/09 11:53:24;;;;;;;15.05;6.43;;;9.40;73.50;;;;;;5022607;28;20074;-64
2022/12/09 11:55:54;;;;;;;23.33;6.60;;;9.40;74.20;;;;;;5025797;28;20168;-61
2022/12/09 11:58:52;;;;;;;18.85;5.60;;;9.40;74.20;;;;;;5024836;28;20117;-64
2022/12/09 12:01:25;;;;;;;16.92;5.78;;;9.50;74.40;;;;;;5022878;28;20117;-64
2022/12/09 12:04:06;;;;;;;21.85;5.82;;;9.60;74.20;;;;;;5022154;28;20533;-62
2022/12/09 12:06:57;;;;;;;15.07;5.45;;;9.70;74.00;;;;;;5023110;28;20535;-64
2022/12/09 12:09:33;;;;;;;10.88;4.53;;;9.70;73.80;;;;;;5023984;28;20069;-63
2022/12/09 12:12:13;;;;;;;16.80;4.47;;;9.70;73.40;;;;;;5019551;28;20092;-62
2022/12/09 12:14:42;;;;;;;13.38;4.50;;;9.70;73.50;;;;;;5022418;28;20088;-62
2022/12/09 12:17:26;;;;;;;11.35;4.32;;;9.70;73.50;;;;;;5019499;28;20109;-65
2022/12/09 12:19:55;;;;;;;15.75;4.45;;;9.70;73.80;;;;;;5022327;28;20089;-65
2022/12/09 12:22:49;;;;;;;12.23;4.15;;;9.70;74.10;;;;;;5020937;28;20420;-64
2022/12/09 12:25:53;;;;;;;13.55;4.20;;;9.70;74.20;;;;;;5026105;28;20117;-64
2022/12/09 12:28:28;;;;;;;12.00;4.28;;;9.60;74.10;;;;;;5021832;28;20144;-65
2022/12/09 12:30:57;;;;;;;16.95;4.35;;;9.60;73.90;;;;;;5025323;28;20132;-62
2022/12/09 12:33:45;;;;;;;8.60;3.90;;;9.50;74.00;;;;;;5020742;28;20117;-62
2022/12/09 12:37:07;;;;;;;11.43;3.83;;;9.50;74.40;;;;;;5020717;28;20093;-63
2022/12/09 12:39:50;;;;;;;9.02;3.17;;;9.50;74.20;;;;;;4941395;28;20095;-62
2022/12/09 12:42:25;;;;;;;12.15;3.05;;;9.40;73.60;;;;;;5023519;28;20101;-63
2022/12/09 12:48:13;;;;;;;12.30;2.72;;;9.50;74.80;;;;;;5020292;28;20148;-63
2022/12/09 12:50:49;;;;;;;11.23;2.80;;;9.50;75.00;;;;;;5020097;28;20153;-65
2022/12/09 12:53:38;;;;;;;10.48;3.17;;;9.50;75.30;;;;;;5025177;28;20120;-62
2022/12/09 12:56:16;;;;;;;8.20;3.38;;;9.40;75.00;;;;;;5021606;28;20105;-64
2022/12/09 12:59:16;;;;;;;9.80;4.22;;;9.40;74.90;;;;;;5020004;28;20070;-64
2022/12/09 13:02:01;;;;;;;9.30;3.90;;;9.30;75.70;;;;;;5026066;28;20516;-65
2022/12/09 13:04:58;;;;;;;10.10;3.55;;;9.20;76.10;;;;;;5022608;28;20459;-65
2022/12/09 13:07:38;;;;;;;13.65;4.30;;;9.20;76.20;;;;;;5018813;28;20098;-63
2022/12/09 13:10:15;;;;;;;13.18;3.75;;;9.20;76.60;;;;;;5021295;28;20085;-62
2022/12/09 13:12:53;;;;;;;15.48;4.10;;;9.10;77.20;;;;;;5016788;28;20435;-62
2022/12/09 13:15:42;;;;;;;12.15;3.35;;;9.10;77.10;;;;;;5019821;28;20068;-64